createdAt,value
2019-04-26T00:02:42.667Z,1.31
2019-04-26T00:07:31.573Z,1.34
2019-04-26T00:12:47.198Z,1.32
2019-04-26T00:17:46.568Z,1.15
2019-04-26T00:23:10.561Z,2.84
2019-04-26T00:27:57.662Z,2.03
2019-04-26T00:33:19.394Z,1.65
2019-04-26T00:38:06.959Z,1.61
2019-04-26T00:43:27.300Z,1.29
2019-04-26T00:48:18.966Z,1.66
2019-04-26T00:53:27.094Z,1.40
2019-04-26T00:58:33.385Z,1.58
2019-04-26T01:03:28.922Z,2.20
2019-04-26T01:08:51.227Z,2.04
2019-04-26T01:13:46.702Z,1.64
2019-04-26T01:18:54.088Z,1.81
2019-04-26T01:24:05.662Z,5.68
2019-04-26T01:28:54.538Z,2.22
2019-04-26T01:34:17.736Z,1.72
2019-04-26T01:39:05.416Z,2.34
2019-04-26T01:44:21.753Z,1.70
2019-04-26T01:49:18.255Z,1.98
2019-04-26T01:54:34.772Z,1.64
2019-04-26T01:59:35.561Z,1.70
2019-04-26T02:04:41.026Z,1.99
2019-04-26T02:09:41.266Z,1.70
2019-04-26T02:14:52.546Z,2.75
2019-04-26T02:19:41.381Z,2.50
2019-04-26T02:24:57.330Z,1.70
2019-04-26T02:29:56.215Z,2.04
2019-04-26T02:35:18.325Z,3.90
2019-04-26T02:40:07.113Z,1.86
2019-04-26T02:45:19.457Z,3.24
2019-04-26T02:50:18.241Z,2.06
2019-04-26T02:55:36.359Z,2.69
2019-04-26T03:00:31.732Z,2.16
2019-04-26T03:05:45.951Z,2.19
2019-04-26T03:10:44.762Z,2.93
2019-04-26T03:16:06.556Z,3.03
2019-04-26T03:20:54.881Z,3.22
2019-04-26T03:26:16.794Z,3.18
2019-04-26T03:31:05.671Z,3.41
2019-04-26T03:36:21.249Z,3.37
2019-04-26T03:41:20.489Z,3.47
2019-04-26T03:46:45.232Z,3.67
2019-04-26T03:51:32.160Z,3.12
2019-04-26T03:56:49.218Z,3.02
2019-04-26T04:01:48.078Z,2.98
2019-04-26T04:07:05.043Z,3.05
2019-04-26T04:12:11.204Z,3.85
2019-04-26T04:17:23.577Z,3.43
2019-04-26T04:22:12.482Z,3.56
2019-04-26T04:27:35.703Z,3.89
2019-04-26T04:32:24.128Z,3.15
2019-04-26T04:37:33.375Z,3.31
2019-04-26T04:42:50.318Z,3.70
2019-04-26T04:47:52.485Z,3.69
2019-04-26T04:52:50.129Z,4.73
2019-04-26T04:58:05.160Z,4.14
2019-04-26T05:03:03.536Z,3.98
2019-04-26T05:08:16.981Z,4.47
2019-04-26T05:13:16.003Z,4.25
2019-04-26T05:18:32.290Z,4.76
2019-04-26T05:23:31.176Z,4.33
2019-04-26T05:28:47.566Z,4.76
2019-04-26T05:33:47.443Z,5.04
2019-04-26T05:39:07.373Z,5.72
2019-04-26T05:43:56.238Z,5.52
2019-04-26T05:54:19.247Z,5.61
2019-04-26T05:59:26.025Z,5.42
2019-04-26T06:04:24.894Z,6.82
2019-04-26T06:14:41.731Z,4.60
2019-04-26T06:20:03.105Z,4.64
2019-04-26T06:24:52.647Z,5.22
2019-04-26T06:30:07.190Z,6.52
2019-04-26T06:35:06.040Z,5.50
2019-04-26T06:40:28.254Z,4.93
2019-04-26T06:45:17.136Z,5.47
2019-04-26T06:50:28.109Z,4.68
2019-04-26T06:55:27.404Z,6.71
2019-04-26T07:00:42.855Z,4.71
2019-04-26T07:05:41.756Z,4.56
2019-04-26T07:11:04.809Z,4.95
2019-04-26T07:16:01.259Z,4.30
2019-04-26T07:21:06.915Z,5.06
2019-04-26T07:26:05.906Z,4.30
2019-04-26T07:31:22.016Z,4.81
2019-04-26T07:36:20.871Z,4.84
2019-04-26T07:41:36.969Z,4.72
2019-04-26T07:46:35.874Z,4.94
2019-04-26T07:51:58.007Z,5.79
2019-04-26T07:56:46.869Z,5.53
2019-04-26T08:02:09.011Z,5.03
2019-04-26T08:06:56.612Z,5.87
2019-04-26T08:12:08.170Z,4.83
2019-04-26T08:17:08.193Z,4.14
2019-04-26T08:22:22.606Z,4.64
2019-04-26T08:27:26.499Z,3.76
2019-04-26T08:32:50.241Z,3.99
2019-04-26T08:37:39.118Z,4.13
2019-04-26T08:42:58.713Z,5.98
2019-04-26T08:47:56.365Z,3.81
2019-04-26T08:53:19.149Z,3.97
2019-04-26T08:58:07.472Z,3.49
2019-04-26T09:03:23.524Z,4.12
2019-04-26T09:08:31.353Z,4.07
2019-04-26T09:13:31.464Z,3.29
2019-04-26T09:18:43.222Z,3.90
2019-04-26T09:23:51.867Z,4.10
2019-04-26T09:28:37.384Z,4.20
2019-04-26T09:38:53.303Z,4.91
2019-04-26T09:44:01.778Z,3.80
2019-04-26T09:49:11.110Z,4.36
2019-04-26T09:54:20.058Z,4.05
2019-04-26T09:59:28.060Z,5.10
2019-04-26T10:04:37.177Z,3.27
2019-04-26T10:09:46.700Z,3.19
2019-04-26T10:14:57.150Z,4.09
2019-04-26T10:19:56.451Z,3.77
2019-04-26T10:25:08.046Z,5.35
2019-04-26T10:30:14.608Z,4.85
2019-04-26T10:35:23.732Z,4.67
2019-04-26T10:40:35.658Z,4.39
2019-04-26T10:45:41.690Z,3.35
2019-04-26T10:50:50.494Z,3.63
2019-04-26T10:55:59.800Z,3.59
2019-04-26T11:01:08.622Z,3.29
2019-04-26T11:06:17.579Z,4.48
2019-04-26T11:11:26.378Z,4.79
2019-04-26T11:16:37.215Z,3.05
2019-04-26T11:21:45.124Z,4.16
2019-04-26T11:26:44.020Z,3.33
2019-04-26T11:31:54.192Z,3.89
2019-04-26T11:37:01.449Z,3.71
2019-04-26T11:42:11.842Z,4.93
2019-04-26T11:47:19.170Z,5.39
2019-04-26T11:52:28.124Z,3.98
2019-04-26T11:57:40.002Z,3.72
2019-04-26T12:02:50.732Z,5.03
2019-04-26T12:07:57.508Z,5.25
2019-04-26T12:13:06.834Z,4.37
2019-04-26T12:18:05.655Z,3.88
2019-04-26T12:23:20.089Z,4.19
2019-04-26T12:28:23.113Z,3.74
2019-04-26T12:33:22.070Z,3.94
2019-04-26T12:38:31.003Z,3.57
2019-04-26T12:43:40.020Z,3.56
2019-04-26T12:48:54.241Z,3.99
2019-04-26T12:53:52.714Z,3.37
2019-04-26T12:59:01.600Z,3.70
2019-04-26T13:04:10.997Z,3.89
2019-04-26T13:09:21.864Z,4.12
2019-04-26T13:14:28.136Z,4.01
2019-04-26T13:19:36.953Z,4.43
2019-04-26T13:24:46.956Z,3.41
2019-04-26T13:30:01.852Z,2.75
2019-04-26T13:35:03.232Z,4.73
2019-04-26T13:40:12.115Z,4.19
2019-04-26T13:45:21.375Z,4.53
2019-04-26T13:50:29.789Z,4.06
2019-04-26T13:55:39.227Z,4.03
2019-04-26T14:00:48.112Z,3.75
2019-04-26T14:05:57.652Z,3.27
2019-04-26T14:11:06.005Z,5.39
2019-04-26T14:16:17.142Z,4.60
2019-04-26T14:21:23.959Z,4.61
2019-04-26T14:26:35.324Z,4.96
2019-04-26T14:31:41.707Z,4.48
2019-04-26T14:36:50.998Z,4.36
2019-04-26T14:42:00.039Z,3.40
2019-04-26T14:47:14.762Z,3.38
2019-04-26T14:52:17.263Z,3.50
2019-04-26T14:57:31.402Z,2.72
2019-04-26T15:02:35.082Z,2.66
2019-04-26T15:07:51.024Z,2.62
2019-04-26T15:13:01.403Z,4.98
2019-04-26T15:18:02.947Z,2.61
2019-04-26T15:23:19.341Z,3.21
2019-04-26T15:28:16.187Z,3.34
2019-04-26T15:33:23.637Z,3.19
2019-04-26T15:38:41.053Z,3.36
2019-04-26T15:43:42.845Z,2.36
2019-04-26T15:48:54.494Z,2.34
2019-04-26T15:54:00.826Z,2.44
2019-04-26T15:59:10.096Z,2.71
2019-04-26T16:04:18.946Z,2.81
2019-04-26T16:09:27.655Z,2.48
2019-04-26T16:14:37.092Z,2.92
2019-04-26T16:19:45.399Z,3.46
2019-04-26T16:24:54.278Z,2.60
2019-04-26T16:30:03.517Z,2.78
2019-04-26T16:35:12.430Z,3.38
2019-04-26T16:40:25.769Z,3.15
2019-04-26T16:45:30.098Z,2.42
2019-04-26T16:50:44.312Z,2.72
2019-04-26T16:55:52.191Z,2.65
2019-04-26T17:00:58.036Z,2.30
2019-04-26T17:06:10.085Z,2.03
2019-04-26T17:11:14.126Z,2.78
2019-04-26T17:16:25.556Z,2.35
2019-04-26T17:21:32.814Z,2.92
2019-04-26T17:26:40.409Z,2.29
2019-04-26T17:31:53.328Z,2.40
2019-04-26T17:36:52.249Z,2.71
2019-04-26T17:42:01.172Z,2.97
2019-04-26T17:47:10.475Z,3.18
2019-04-26T17:52:17.247Z,4.18
2019-04-26T17:57:36.010Z,2.47
2019-04-26T18:02:42.133Z,2.36
2019-04-26T18:07:50.283Z,2.03
2019-04-26T18:12:51.399Z,2.29
2019-04-26T18:18:00.198Z,2.97
2019-04-26T18:23:10.094Z,4.81
2019-04-26T18:28:18.266Z,4.28
2019-04-26T18:33:27.194Z,2.51
2019-04-26T18:38:48.482Z,3.08
2019-04-26T18:43:43.561Z,2.82
2019-04-26T18:48:56.180Z,3.10
2019-04-26T18:53:55.190Z,3.46
2019-04-26T18:59:07.356Z,4.54
2019-04-26T19:04:15.493Z,3.58
2019-04-26T19:09:13.493Z,4.43
2019-04-26T19:14:22.526Z,6.00
2019-04-26T19:19:32.776Z,4.09
2019-04-26T19:24:31.688Z,4.46
2019-04-26T19:29:41.099Z,4.73
2019-04-26T19:34:49.532Z,6.40
2019-04-26T19:39:58.540Z,5.51
2019-04-26T19:45:13.580Z,6.15
2019-04-26T19:50:16.193Z,5.68
2019-04-26T19:55:26.754Z,5.53
2019-04-26T20:00:33.793Z,5.64
2019-04-26T20:05:44.112Z,5.42
2019-04-26T20:10:52.115Z,6.57
2019-04-26T20:16:02.710Z,6.32
2019-04-26T20:21:12.619Z,5.07
2019-04-26T20:26:17.164Z,5.09
2019-04-26T20:31:26.017Z,5.78
2019-04-26T20:36:41.671Z,5.35
2019-04-26T20:41:38.124Z,6.96
2019-04-26T20:46:47.109Z,5.77
2019-04-26T20:51:56.429Z,5.68
2019-04-26T20:57:05.463Z,6.80
2019-04-26T21:02:16.375Z,6.52
2019-04-26T21:07:22.272Z,6.36
2019-04-26T21:12:31.475Z,6.63
2019-04-26T21:17:41.472Z,6.84
2019-04-26T21:22:52.471Z,7.07
2019-04-26T21:27:51.719Z,6.43
2019-04-26T21:32:59.387Z,6.59
2019-04-26T21:38:08.300Z,5.74
2019-04-26T21:43:17.145Z,4.35
2019-04-26T21:48:27.460Z,3.12
2019-04-26T21:53:26.321Z,3.05
2019-04-26T21:58:33.792Z,2.05
2019-04-26T22:03:55.475Z,2.90
2019-04-26T22:09:04.733Z,1.89
2019-04-26T22:14:14.836Z,2.03
2019-04-26T22:19:23.854Z,2.14
2019-04-26T22:24:21.079Z,1.70
2019-04-26T22:29:30.094Z,1.53
2019-04-26T22:34:41.431Z,1.50
2019-04-26T22:39:48.893Z,1.90
2019-04-26T22:44:58.113Z,1.88
2019-04-26T22:50:07.059Z,2.71
2019-04-26T22:55:22.096Z,2.05
2019-04-26T23:00:27.929Z,1.72
2019-04-26T23:05:37.319Z,2.27
2019-04-26T23:10:42.866Z,2.10
2019-04-26T23:15:52.942Z,3.08
2019-04-26T23:20:53.292Z,3.25
2019-04-26T23:26:02.387Z,3.47
2019-04-26T23:31:09.245Z,4.63
2019-04-26T23:36:18.310Z,4.66
2019-04-26T23:41:25.974Z,5.47
2019-04-26T23:46:34.934Z,5.59
2019-04-26T23:51:45.764Z,6.73
2019-04-26T23:56:55.663Z,6.12
